Copper Mountain, Colorado
Current Conditions -  °F | °C
As of 2:35 AM on Thursday 27 Nov 2014 (Local Time) from KCCU Reporting Station
Clear Clear  
Wind Chill: 11°   Ceiling: Unl
Heat Index: 27°   Visibility: 10mi
Dew Point: 14°   Wind: 29mph
Humidity: 59%   Direction: 260°W
Pressure: 30.51"   Gusts: 36mph
Location:  39.564°N, 106.162°W
Report Text: KCCU 270935Z AUTO 26025G31KT 10SM CLR M03/M10 A3051 RMK AO2
Loading
Personal Weather Stations






























Interactive Weather Map New forecast layout! Learn more

10-Day Weather Forecast

Advertisements
Track Severe Weather on mobile